Time;durP1;ratioP1;P1;durP2;ratioP2;P2;SDS_P1;SDS_P2;PMS_P1;PMS_P2;Temp;Humidity;BMP_temperature;BMP_pressure;BME280_temperature;BME280_humidity;BME280_pressure;Samples;Min_cycle;Max_cycle;Signal;HPM_P1;HPM_P2
2023/04/04 00:01:02;;;;;;;3.67;2.37;;;;;;;-0.30;48.78;98302.81;6131800;28;20242;-90
2023/04/04 00:04:04;;;;;;;4.30;2.00;;;;;;;-0.18;47.14;98322.50;6143093;28;20556;-89
2023/04/04 00:07:06;;;;;;;2.83;1.63;;;;;;;-0.01;47.31;98358.25;6118048;28;20234;-89
2023/04/04 00:10:09;;;;;;;3.07;2.33;;;;;;;-1.86;47.93;98062.47;6133272;28;20254;-89
2023/04/04 00:13:11;;;;;;;3.50;2.20;;;;;;;-0.51;48.29;98305.84;6133979;28;20241;-88
2023/04/04 00:16:13;;;;;;;3.20;2.17;;;;;;;-0.52;47.46;98302.41;6130438;28;20268;-89
2023/04/04 00:19:17;;;;;;;3.97;2.33;;;;;;;-0.98;48.27;98245.28;6140809;28;20605;-89
2023/04/04 00:22:19;;;;;;;3.37;1.80;;;;;;;-0.69;46.36;98281.53;6128134;28;20629;-88
2023/04/04 00:25:21;;;;;;;4.03;1.80;;;;;;;-0.59;46.93;98304.00;6138093;28;20225;-88
2023/04/04 00:28:23;;;;;;;2.33;1.70;;;;;;;-1.92;45.67;98065.69;6150040;28;20234;-89
2023/04/04 00:31:26;;;;;;;4.17;1.90;;;;;;;-1.20;45.39;98183.84;6117818;28;20285;-89
2023/04/04 00:34:28;;;;;;;4.37;1.90;;;;;;;-2.20;46.95;98063.22;6117834;28;20238;-89
2023/04/04 00:37:30;;;;;;;2.60;1.67;;;;;;;-1.17;48.05;98212.31;6149569;28;20230;-89
2023/04/04 00:40:52;;;;;;;2.73;1.90;;;;;;;-0.63;47.58;98317.56;6149715;28;20230;-89
2023/04/04 00:43:55;;;;;;;4.80;1.80;;;;;;;-1.02;48.52;98281.34;6132246;28;20703;-89
2023/04/04 00:46:57;;;;;;;4.93;2.00;;;;;;;-0.72;48.86;98345.47;6141286;28;20230;-88
2023/04/04 00:50:00;;;;;;;3.30;2.20;;;;;;;-1.24;50.34;98280.03;6133281;28;20370;-88
2023/04/04 00:53:02;;;;;;;3.33;2.00;;;;;;;-2.12;52.08;98177.28;6132466;28;20386;-89
2023/04/04 00:56:08;;;;;;;3.10;2.00;;;;;;;-1.06;52.86;98345.38;6133431;28;20245;-89
2023/04/04 00:59:10;;;;;;;5.30;2.43;;;;;;;-3.29;52.42;98038.22;6116205;28;20317;-89
2023/04/04 01:02:12;;;;;;;3.17;2.03;;;;;;;-1.22;53.86;98346.06;6109141;28;20603;-89
2023/04/04 01:05:15;;;;;;;3.73;2.10;;;;;;;-1.26;53.93;98354.38;6121364;28;20230;-89
2023/04/04 01:08:21;;;;;;;4.73;2.00;;;;;;;-2.04;54.51;98244.41;6117102;28;20234;-89
2023/04/04 01:11:25;;;;;;;3.47;2.50;;;;;;;-1.94;53.46;98211.22;6101605;28;20227;-88
2023/04/04 01:14:27;;;;;;;3.37;1.77;;;;;;;-1.50;54.71;98293.06;6100725;28;20239;-89
2023/04/04 01:17:29;;;;;;;3.33;2.27;;;;;;;-1.24;54.58;98342.78;6099959;28;20242;-89
2023/04/04 01:20:36;;;;;;;5.07;2.33;;;;;;;-1.32;55.88;98348.78;6099388;28;20237;-89
2023/04/04 01:23:58;;;;;;;4.17;1.83;;;;;;;-1.42;57.05;98350.63;6108813;28;20230;-88
2023/04/04 01:27:08;;;;;;;2.73;2.17;;;;;;;-1.44;56.14;98342.09;6095811;28;20234;-89
2023/04/04 01:30:18;;;;;;;4.47;2.07;;;;;;;-2.44;57.81;98207.31;6117214;28;20232;-89
2023/04/04 01:33:27;;;;;;;4.33;2.00;;;;;;;-1.67;58.67;98335.69;6100144;28;20219;-89
2023/04/04 01:36:38;;;;;;;4.60;2.23;;;;;;;-1.96;58.80;98294.94;6113025;28;20258;-88
2023/04/04 01:39:58;;;;;;;3.23;2.10;;;;;;;-1.81;53.93;98282.19;6115980;28;20243;-89
2023/04/04 01:43:01;;;;;;;3.80;1.70;;;;;;;-1.86;53.34;98258.31;6100577;28;20637;-89
2023/04/04 01:46:05;;;;;;;5.97;2.77;;;;;;;-1.96;52.84;98242.72;6125984;28;20249;-89
2023/04/04 01:49:08;;;;;;;4.93;2.07;;;;;;;-1.75;51.91;98252.84;6102543;28;20235;-89
2023/04/04 01:52:13;;;;;;;3.00;1.80;;;;;;;-1.55;54.28;98277.03;6116872;28;20233;-89
2023/04/04 01:55:15;;;;;;;3.63;1.70;;;;;;;-1.32;54.44;98346.16;6115622;28;20234;-89
2023/04/04 01:58:17;;;;;;;2.93;1.70;;;;;;;-2.05;54.78;98222.72;6099878;28;20333;-88
2023/04/04 02:01:20;;;;;;;4.23;2.20;;;;;;;-1.95;55.45;98254.78;6114004;28;20329;-88
2023/04/04 02:04:22;;;;;;;3.17;1.93;;;;;;;-1.84;53.78;98267.63;6113823;28;20226;-89
2023/04/04 02:07:24;;;;;;;7.30;2.77;;;;;;;-1.73;54.70;98258.72;6114739;28;20249;-89
2023/04/04 02:10:26;;;;;;;3.43;1.80;;;;;;;-2.71;55.00;98098.66;6135433;28;20376;-88
2023/04/04 02:13:28;;;;;;;2.93;1.87;;;;;;;-1.61;51.46;98259.34;6159567;28;20342;-88
2023/04/04 02:16:32;;;;;;;2.20;1.93;;;;;;;-1.91;53.24;98171.78;6135368;28;20300;-88
2023/04/04 02:19:34;;;;;;;2.17;1.97;;;;;;;-1.66;53.59;98225.03;6141280;28;20237;-89
2023/04/04 02:22:36;;;;;;;2.50;1.97;;;;;;;-1.42;50.15;98208.72;6126606;28;20236;-89
2023/04/04 02:25:38;;;;;;;3.73;1.90;;;;;;;-0.61;49.91;98326.88;6142251;28;20226;-88
2023/04/04 02:28:43;;;;;;;2.80;2.00;;;;;;;-0.53;49.38;98318.28;6128009;28;20325;-89
2023/04/04 02:31:45;;;;;;;3.17;1.90;;;;;;;-0.53;50.50;98320.88;6101050;28;20321;-89
2023/04/04 02:34:46;;;;;;;3.47;2.17;;;;;;;-0.49;49.24;98321.38;6099650;28;20241;-88
2023/04/04 02:37:49;;;;;;;2.80;1.87;;;;;;;-0.40;48.07;98334.34;6115378;28;20238;-89
2023/04/04 02:40:56;;;;;;;3.07;1.80;;;;;;;-1.58;48.12;98124.03;6097343;28;20730;-89
2023/04/04 02:43:59;;;;;;;2.63;1.80;;;;;;;-0.80;48.92;98257.28;6114761;28;20804;-89
2023/04/04 02:47:01;;;;;;;2.07;1.87;;;;;;;-1.11;48.76;98219.53;6098580;28;20604;-89
2023/04/04 02:50:05;;;;;;;2.40;1.60;;;;;;;-1.12;48.29;98221.31;6114751;28;20237;-89
2023/04/04 02:53:07;;;;;;;3.67;1.90;;;;;;;-0.46;48.65;98324.50;6114290;28;20242;-88
2023/04/04 02:56:11;;;;;;;2.87;1.87;;;;;;;-1.11;48.72;98233.41;6112882;28;20317;-89
2023/04/04 02:59:13;;;;;;;2.30;1.97;;;;;;;-1.18;48.36;98200.19;6122708;28;20237;-89
2023/04/04 03:02:15;;;;;;;3.13;2.20;;;;;;;-1.22;48.39;98199.69;6098108;29;20234;-88
2023/04/04 03:05:17;;;;;;;4.23;2.10;;;;;;;-1.15;49.04;98228.66;6129518;28;20245;-89
2023/04/04 03:08:19;;;;;;;2.93;1.60;;;;;;;-1.25;49.97;98223.53;6115130;29;20242;-89
2023/04/04 03:11:22;;;;;;;2.90;2.00;;;;;;;-1.23;48.92;98208.53;6115986;29;20646;-88
2023/04/04 03:14:28;;;;;;;2.80;1.83;;;;;;;-1.17;49.87;98241.06;6099859;29;20230;-88
2023/04/04 03:17:32;;;;;;;4.23;2.20;;;;;;;-0.88;50.47;98306.94;6113958;29;20238;-89
2023/04/04 03:20:34;;;;;;;2.37;1.90;;;;;;;-2.93;49.87;98000.00;6093753;29;20244;-88
2023/04/04 03:23:36;;;;;;;3.37;2.30;;;;;;;-2.91;50.87;98004.06;6098634;29;20296;-89
2023/04/04 03:26:38;;;;;;;3.20;1.67;;;;;;;-2.06;52.03;98142.78;6113783;29;20237;-89
2023/04/04 03:29:41;;;;;;;3.00;1.83;;;;;;;-2.13;51.48;98115.63;6113654;29;20234;-89
2023/04/04 03:32:44;;;;;;;5.07;1.93;;;;;;;-1.82;52.13;98183.94;6113730;29;20234;-88
2023/04/04 03:35:46;;;;;;;2.90;1.97;;;;;;;-2.08;52.32;98131.66;6097713;29;20745;-88
2023/04/04 03:38:49;;;;;;;3.20;2.10;;;;;;;-1.55;53.58;98224.78;6094844;29;20718;-89
2023/04/04 03:41:51;;;;;;;2.97;2.00;;;;;;;-1.58;52.17;98236.38;6125814;29;20324;-88
2023/04/04 03:44:53;;;;;;;4.93;2.10;;;;;;;-2.09;52.90;98163.94;6113958;29;20709;-88
2023/04/04 03:48:03;;;;;;;3.40;1.90;;;;;;;-1.48;53.67;98272.81;6098308;29;20227;-88
2023/04/04 03:51:06;;;;;;;3.67;1.97;;;;;;;-1.90;53.12;98205.56;6121992;29;20213;-89
2023/04/04 03:54:08;;;;;;;3.50;2.20;;;;;;;-1.74;52.57;98223.16;6095296;29;20211;-88
2023/04/04 03:57:10;;;;;;;2.53;1.87;;;;;;;-2.04;52.04;98169.53;6121349;28;20573;-89
2023/04/04 04:00:15;;;;;;;2.60;1.97;;;;;;;-3.43;52.00;97953.59;6134264;28;20234;-88
2023/04/04 04:03:18;;;;;;;6.20;1.87;;;;;;;-1.62;51.45;98231.59;6134068;28;20215;-88
2023/04/04 04:06:20;;;;;;;3.00;1.87;;;;;;;-2.10;51.92;98155.28;6134006;28;20257;-89
2023/04/04 04:09:22;;;;;;;2.23;1.90;;;;;;;-2.64;51.30;98075.41;6118968;28;20281;-88
2023/04/04 04:12:25;;;;;;;6.27;2.33;;;;;;;-2.53;51.20;98087.38;6133759;28;20280;-88
2023/04/04 04:15:27;;;;;;;4.40;2.20;;;;;;;-2.05;51.31;98170.50;6141913;28;20222;-88
2023/04/04 04:18:32;;;;;;;3.77;2.00;;;;;;;-1.99;50.83;98171.69;6124961;28;20230;-88
2023/04/04 04:21:35;;;;;;;2.50;1.97;;;;;;;-2.27;51.23;98121.38;6117950;28;20226;-88
2023/04/04 04:24:37;;;;;;;3.80;2.10;;;;;;;-2.11;52.18;98178.94;6133599;28;20226;-89
2023/04/04 04:27:40;;;;;;;3.10;2.27;;;;;;;-2.14;51.69;98155.75;6115340;28;20226;-89
2023/04/04 04:30:43;;;;;;;2.13;1.80;;;;;;;-2.19;52.46;98150.97;6141702;28;20234;-89
2023/04/04 04:33:47;;;;;;;3.00;2.30;;;;;;;-2.87;51.79;98068.00;6139344;28;20418;-88
2023/04/04 04:36:52;;;;;;;3.13;1.77;;;;;;;-2.17;52.21;98182.97;6132958;28;20230;-88
2023/04/04 04:40:06;;;;;;;3.77;2.30;;;;;;;-1.48;53.16;98254.53;6134080;28;20892;-89
2023/04/04 04:43:13;;;;;;;3.17;2.03;;;;;;;-2.16;52.51;98173.34;6129816;28;20256;-89
2023/04/04 04:46:15;;;;;;;2.07;1.70;;;;;;;-2.30;52.51;98179.09;6117315;28;20231;-89
2023/04/04 04:49:18;;;;;;;2.70;1.90;;;;;;;-2.29;53.21;98181.53;6125547;28;20226;-88
2023/04/04 04:52:20;;;;;;;5.93;2.20;;;;;;;-2.02;52.99;98227.66;6149905;28;20321;-89
2023/04/04 04:55:22;;;;;;;2.87;1.93;;;;;;;-1.51;52.59;98274.94;6119449;28;20226;-88
2023/04/04 04:58:35;;;;;;;3.03;1.97;;;;;;;-1.54;53.11;98280.47;6118268;28;20254;-89
2023/04/04 05:01:40;;;;;;;2.57;1.77;;;;;;;-2.47;52.56;98139.78;6118127;28;20590;-88
2023/04/04 05:04:44;;;;;;;3.27;2.20;;;;;;;-2.40;52.65;98158.28;6116442;28;20266;-89
2023/04/04 05:07:48;;;;;;;2.70;2.07;;;;;;;-1.47;52.13;98274.50;6125550;28;20230;-88
2023/04/04 05:10:51;;;;;;;4.63;2.10;;;;;;;-2.08;52.12;98178.63;6120225;29;20780;-89
2023/04/04 05:13:54;;;;;;;4.00;2.50;;;;;;;-2.16;52.32;98182.00;6119558;28;20238;-89
2023/04/04 05:16:58;;;;;;;4.37;2.40;;;;;;;-2.01;52.29;98203.19;6117489;28;20243;-88
2023/04/04 05:20:05;;;;;;;4.07;1.70;;;;;;;-1.48;53.99;98285.88;6115808;28;20587;-89
2023/04/04 05:23:07;;;;;;;2.73;1.73;;;;;;;-2.50;50.48;98108.78;6127501;28;20225;-89
2023/04/04 05:26:13;;;;;;;2.63;1.80;;;;;;;-1.68;50.91;98253.06;6133762;28;20222;-88
2023/04/04 05:29:16;;;;;;;2.60;1.47;;;;;;;-2.14;50.60;98187.06;6148079;28;20215;-87
2023/04/04 05:32:21;;;;;;;2.53;1.70;;;;;;;-1.69;51.07;98264.50;6105256;28;20235;-88
2023/04/04 05:35:32;;;;;;;3.63;1.90;;;;;;;-1.32;51.20;98320.03;6103877;28;20253;-88
2023/04/04 05:38:35;;;;;;;4.03;2.07;;;;;;;-1.65;51.34;98278.91;6102012;28;20239;-88
2023/04/04 05:41:37;;;;;;;3.57;1.83;;;;;;;-2.01;52.08;98220.63;6117057;28;20598;-88
2023/04/04 05:44:48;;;;;;;5.63;2.20;;;;;;;-1.65;51.89;98286.72;6115815;28;20234;-88
2023/04/04 05:47:50;;;;;;;4.63;1.90;;;;;;;-1.57;51.27;98271.97;6115972;28;20230;-88
2023/04/04 05:50:55;;;;;;;2.87;1.83;;;;;;;-1.32;51.75;98325.25;6115614;28;20258;-88
2023/04/04 05:54:09;;;;;;;3.47;1.77;;;;;;;-1.31;51.11;98339.13;6110694;28;20329;-88
2023/04/04 05:57:12;;;;;;;2.87;1.80;;;;;;;-1.59;51.13;98305.22;6108295;28;20252;-89
2023/04/04 06:00:18;;;;;;;3.47;1.90;;;;;;;-1.52;50.74;98297.63;6135106;28;20222;-88
2023/04/04 06:03:31;;;;;;;3.43;1.83;;;;;;;-1.42;49.82;98282.69;6146806;28;20222;-88
2023/04/04 06:06:34;;;;;;;2.93;1.60;;;;;;;-1.42;50.21;98302.78;6131136;28;20242;-89
2023/04/04 06:09:37;;;;;;;3.17;1.40;;;;;;;-1.77;49.69;98240.91;6147353;28;20602;-88
2023/04/04 06:12:39;;;;;;;2.23;1.63;;;;;;;-2.37;49.66;98143.13;6126938;28;20218;-89
2023/04/04 06:15:44;;;;;;;2.77;1.80;;;;;;;-2.20;48.79;98153.75;6115862;28;20230;-88
2023/04/04 06:18:46;;;;;;;3.70;1.90;;;;;;;-1.38;48.89;98291.88;6130096;28;20621;-88
2023/04/04 06:21:48;;;;;;;2.90;1.70;;;;;;;-0.87;48.74;98337.34;6131037;28;20232;-88
2023/04/04 06:24:50;;;;;;;3.27;1.43;;;;;;;-1.34;49.57;98280.13;6115296;28;20261;-88
2023/04/04 06:27:54;;;;;;;2.43;1.40;;;;;;;-0.89;48.47;98326.19;6137998;28;20230;-88
2023/04/04 06:30:56;;;;;;;3.53;1.80;;;;;;;-0.84;48.58;98339.69;6130903;28;20400;-88
2023/04/04 06:34:05;;;;;;;3.33;1.33;;;;;;;-0.77;48.75;98325.97;6130623;28;20329;-88
2023/04/04 06:37:14;;;;;;;3.77;1.67;;;;;;;-1.36;48.74;98239.47;6122912;28;20598;-89
2023/04/04 06:40:25;;;;;;;4.30;1.90;;;;;;;-2.87;48.31;97996.78;6130258;28;20613;-88
2023/04/04 06:43:28;;;;;;;2.77;1.67;;;;;;;-2.48;48.30;98056.47;6115513;28;20740;-88
2023/04/04 06:46:33;;;;;;;2.03;1.50;;;;;;;-1.26;48.45;98215.84;6130924;28;20838;-88
2023/04/04 06:49:35;;;;;;;4.47;1.43;;;;;;;-0.90;48.07;98274.06;6115107;28;20237;-88
2023/04/04 06:52:37;;;;;;;2.83;1.40;;;;;;;-1.04;47.13;98263.19;6130336;28;20612;-88
2023/04/04 06:55:41;;;;;;;2.73;1.60;;;;;;;-0.66;46.93;98292.50;6110818;28;20445;-88
2023/04/04 06:58:43;;;;;;;2.53;1.10;;;;;;;-1.02;46.51;98239.53;6124128;28;20242;-88
2023/04/04 07:01:45;;;;;;;2.37;1.33;;;;;;;-0.30;47.09;98337.66;6098693;28;20245;-88
2023/04/04 07:04:47;;;;;;;1.97;1.50;;;;;;;-0.76;46.62;98249.94;6114698;28;20249;-88
2023/04/04 07:07:55;;;;;;;3.73;1.40;;;;;;;-0.41;46.00;98285.59;6113634;28;20728;-88
2023/04/04 07:10:58;;;;;;;4.60;1.33;;;;;;;0.04;46.53;98342.06;6114480;28;20329;-88
2023/04/04 07:14:00;;;;;;;6.13;1.40;;;;;;;-1.08;45.42;98119.88;6099519;28;20627;-89
2023/04/04 07:17:02;;;;;;;2.23;1.70;;;;;;;-0.09;45.46;98258.72;6113336;28;20238;-88
2023/04/04 07:20:14;;;;;;;2.07;1.40;;;;;;;0.51;45.08;98320.56;6112762;28;20737;-88
2023/04/04 07:23:16;;;;;;;2.20;1.40;;;;;;;0.60;44.89;98324.03;6112212;28;20237;-88
2023/04/04 07:26:18;;;;;;;3.33;1.60;;;;;;;0.07;43.64;98202.94;6119563;28;20728;-88
2023/04/04 07:29:20;;;;;;;3.07;1.50;;;;;;;0.29;43.46;98226.84;6114080;28;20277;-89
2023/04/04 07:32:23;;;;;;;3.90;2.00;;;;;;;0.07;44.08;98175.91;6129601;28;20702;-88
2023/04/04 07:35:26;;;;;;;2.87;1.57;;;;;;;0.86;44.22;98289.78;6109647;28;20234;-88
2023/04/04 07:38:28;;;;;;;5.33;1.63;;;;;;;0.78;43.71;98261.72;6114655;28;20300;-89
2023/04/04 07:41:30;;;;;;;2.40;1.20;;;;;;;0.43;42.75;98206.03;6117157;28;20241;-88
2023/04/04 07:44:33;;;;;;;1.63;1.30;;;;;;;0.72;43.11;98221.25;6117954;28;20754;-89
2023/04/04 07:47:35;;;;;;;2.27;1.47;;;;;;;1.36;42.70;98284.28;6103860;28;20702;-88
2023/04/04 07:50:37;;;;;;;3.33;1.50;;;;;;;1.22;42.30;98288.41;6117424;28;20726;-88
2023/04/04 07:53:40;;;;;;;3.57;1.30;;;;;;;0.69;42.66;98212.91;6112552;28;20230;-89
2023/04/04 07:56:42;;;;;;;2.07;1.43;;;;;;;0.67;43.02;98233.22;6118621;28;20610;-89
2023/04/04 07:59:44;;;;;;;2.17;1.33;;;;;;;0.85;43.25;98235.69;6115694;29;20293;-89
2023/04/04 08:02:51;;;;;;;1.90;1.30;;;;;;;1.35;41.92;98272.13;6135088;29;20239;-89
2023/04/04 08:05:53;;;;;;;2.60;1.27;;;;;;;1.31;43.13;98291.84;6121243;29;20240;-88
2023/04/04 08:08:55;;;;;;;2.00;1.33;;;;;;;1.24;41.68;98275.13;6112599;29;20715;-90
2023/04/04 08:12:04;;;;;;;2.77;1.40;;;;;;;0.77;41.10;98229.44;6125387;29;20227;-87
2023/04/04 08:15:07;;;;;;;3.17;1.80;;;;;;;-0.11;42.60;98152.50;6132392;29;20683;-88
2023/04/04 08:18:09;;;;;;;3.20;1.47;;;;;;;-0.30;43.67;98146.56;6119477;29;20725;-88
2023/04/04 08:21:11;;;;;;;3.80;1.77;;;;;;;0.24;44.62;98212.44;6131214;29;20719;-89
2023/04/04 08:24:13;;;;;;;2.30;1.60;;;;;;;0.59;43.79;98276.03;6129767;28;20309;-89
2023/04/04 08:27:15;;;;;;;3.23;1.60;;;;;;;0.89;42.62;98276.34;6100902;29;20218;-88
2023/04/04 08:30:18;;;;;;;2.43;1.50;;;;;;;1.14;41.75;98227.28;6105463;29;20261;-89
2023/04/04 08:33:23;;;;;;;5.10;1.80;;;;;;;1.46;40.86;98207.94;6115611;29;20221;-89
2023/04/04 08:36:35;;;;;;;3.83;1.60;;;;;;;2.35;40.42;98306.50;6113949;29;20234;-89
2023/04/04 08:39:37;;;;;;;1.93;1.40;;;;;;;2.08;40.74;98244.75;6117266;29;20222;-89
2023/04/04 08:42:45;;;;;;;3.03;1.80;;;;;;;0.06;41.69;98052.00;6118459;29;20241;-91
2023/04/04 08:45:49;;;;;;;2.27;1.40;;;;;;;0.56;41.59;98153.13;6096094;29;20250;-88
2023/04/04 08:48:54;;;;;;;2.63;1.80;;;;;;;0.87;42.06;98242.38;6101638;29;20589;-89
2023/04/04 08:51:58;;;;;;;2.53;1.47;;;;;;;1.66;42.91;98322.09;6101536;29;20223;-89
2023/04/04 08:55:03;;;;;;;2.67;1.53;;;;;;;1.22;40.87;98241.16;6102681;29;20656;-88
2023/04/04 08:58:05;;;;;;;2.37;1.80;;;;;;;1.15;40.85;98231.53;6115286;28;20609;-89
2023/04/04 09:01:08;;;;;;;2.67;1.80;;;;;;;0.62;40.64;98117.56;6113542;28;20478;-89
2023/04/04 09:04:10;;;;;;;3.30;1.43;;;;;;;0.98;40.91;98220.22;6121561;29;20242;-89
2023/04/04 09:07:14;;;;;;;1.70;1.40;;;;;;;1.32;40.98;98282.16;6132500;28;20230;-89
2023/04/04 09:10:16;;;;;;;2.90;1.40;;;;;;;1.55;40.77;98273.38;6132799;28;20596;-89
2023/04/04 09:13:18;;;;;;;2.30;1.47;;;;;;;1.41;41.09;98213.72;6133514;28;20234;-88
2023/04/04 09:16:21;;;;;;;1.57;1.37;;;;;;;1.64;41.61;98216.41;6113503;28;20370;-88
2023/04/04 09:19:24;;;;;;;1.87;1.50;;;;;;;1.82;40.39;98252.91;6119004;28;20708;-90
2023/04/04 09:22:27;;;;;;;3.27;1.50;;;;;;;1.41;38.69;98174.34;6131581;28;20226;-92
2023/04/04 09:25:29;;;;;;;2.13;1.30;;;;;;;0.23;38.61;97995.16;6120856;28;20231;-91
2023/04/04 09:28:32;;;;;;;3.33;1.37;;;;;;;2.22;39.58;98238.72;6117852;28;20725;-93
2023/04/04 09:31:34;;;;;;;3.53;1.77;;;;;;;0.81;39.29;98017.53;6116936;28;20228;-92
2023/04/04 09:34:36;;;;;;;2.53;2.00;;;;;;;1.16;40.05;98089.66;6132823;28;20234;-91
2023/04/04 09:37:40;;;;;;;2.43;1.40;;;;;;;1.78;43.50;98210.44;6129350;28;20315;-92
2023/04/04 09:40:44;;;;;;;3.67;1.53;;;;;;;1.92;39.39;98285.06;6139742;28;20314;-91
2023/04/04 09:43:47;;;;;;;1.73;1.30;;;;;;;1.67;39.84;98281.69;6122087;28;20239;-91
2023/04/04 09:46:51;;;;;;;2.90;1.83;;;;;;;1.57;39.85;98215.44;6140984;28;20706;-91
2023/04/04 09:50:03;;;;;;;2.17;1.60;;;;;;;1.59;38.81;98174.09;6142308;28;20233;-90
2023/04/04 09:53:05;;;;;;;1.70;1.47;;;;;;;0.51;38.40;97971.97;6133190;28;20609;-91
2023/04/04 09:56:07;;;;;;;2.07;1.53;;;;;;;2.63;39.30;98201.59;6125071;28;20776;-89
2023/04/04 09:59:11;;;;;;;3.60;1.57;;;;;;;2.68;37.68;98157.16;6098300;28;20314;-89
2023/04/04 10:02:15;;;;;;;2.20;1.33;;;;;;;2.12;38.66;98140.91;6115470;28;20706;-88
2023/04/04 10:05:19;;;;;;;1.97;1.77;;;;;;;2.37;39.65;98182.78;6113283;28;20227;-90
2023/04/04 10:08:22;;;;;;;4.23;2.10;;;;;;;2.65;41.19;98262.72;6115633;28;20226;-90
2023/04/04 10:11:32;;;;;;;2.53;1.50;;;;;;;2.82;39.03;98248.44;6094178;29;20315;-88
2023/04/04 10:14:35;;;;;;;4.67;1.90;;;;;;;2.53;39.26;98222.88;6107611;28;20232;-89
2023/04/04 10:17:39;;;;;;;2.53;1.60;;;;;;;2.65;37.65;98262.72;6114333;28;20264;-88
2023/04/04 10:20:43;;;;;;;2.53;1.50;;;;;;;2.21;39.43;98165.28;6129436;28;20237;-89
2023/04/04 10:23:47;;;;;;;3.10;1.73;;;;;;;3.03;37.36;98237.22;6115093;28;20239;-89
2023/04/04 10:26:49;;;;;;;4.03;2.07;;;;;;;1.65;39.09;98023.72;6121301;28;20229;-88
2023/04/04 10:29:52;;;;;;;2.43;1.50;;;;;;;3.45;37.92;98258.66;6099384;28;20609;-89
2023/04/04 10:33:14;;;;;;;3.03;1.73;;;;;;;2.35;35.46;98176.84;6100575;28;20230;-89
2023/04/04 10:36:27;;;;;;;2.00;1.67;;;;;;;2.41;36.97;98203.25;6131050;28;20258;-88
2023/04/04 10:39:35;;;;;;;3.77;1.80;;;;;;;2.78;38.21;98244.53;6128128;28;20669;-90
2023/04/04 10:42:39;;;;;;;2.77;1.50;;;;;;;2.82;36.22;98150.28;6111226;28;20664;-89
2023/04/04 10:45:43;;;;;;;3.10;1.90;;;;;;;2.85;35.73;98150.72;6123019;28;20238;-89
2023/04/04 10:48:47;;;;;;;2.93;1.83;;;;;;;3.28;39.38;98169.31;6128224;28;20324;-90
2023/04/04 10:51:51;;;;;;;1.73;1.53;;;;;;;3.24;36.61;98154.88;6101340;28;20234;-89
2023/04/04 10:55:00;;;;;;;2.50;1.60;;;;;;;2.03;37.34;97914.19;6114635;28;20644;-89
2023/04/04 10:58:02;;;;;;;3.67;2.00;;;;;;;3.61;36.36;98182.09;6115839;28;20665;-89
2023/04/04 11:01:06;;;;;;;1.90;1.53;;;;;;;3.10;34.60;98153.91;6130951;28;20867;-89
2023/04/04 11:04:20;;;;;;;3.43;1.90;;;;;;;2.89;35.30;98080.13;6115285;28;20232;-90
2023/04/04 11:07:27;;;;;;;2.87;1.90;;;;;;;3.32;35.75;98159.25;6128275;28;20324;-89
2023/04/04 11:10:35;;;;;;;4.00;1.90;;;;;;;2.88;35.63;98067.16;6135452;28;20400;-89
2023/04/04 11:13:38;;;;;;;2.10;1.90;;;;;;;3.30;35.08;98141.00;6135817;28;20715;-90
2023/04/04 11:16:45;;;;;;;3.83;2.07;;;;;;;3.84;35.60;98185.41;6114325;28;20621;-89
2023/04/04 11:20:17;;;;;;;2.60;2.03;;;;;;;3.38;35.84;98139.25;6147461;28;20292;-89
2023/04/04 11:23:21;;;;;;;3.60;1.70;;;;;;;3.20;35.72;98102.78;6164012;28;20245;-89
2023/04/04 11:26:26;;;;;;;5.57;2.33;;;;;;;3.93;35.81;98194.00;6167032;28;20248;-89
2023/04/04 11:30:11;;;;;;;2.27;1.73;;;;;;;3.92;34.76;98152.00;6151815;28;20246;-88
2023/04/04 11:33:27;;;;;;;2.80;2.20;;;;;;;2.89;35.56;98038.03;6081361;29;20223;-89
2023/04/04 11:36:35;;;;;;;2.87;2.10;;;;;;;3.78;36.09;98178.22;6090805;29;20856;-90
2023/04/04 11:39:49;;;;;;;3.13;1.93;;;;;;;3.59;35.72;98092.69;6095316;29;20710;-89
2023/04/04 11:42:54;;;;;;;3.67;1.90;;;;;;;3.48;34.03;98118.72;6092444;29;20610;-89
2023/04/04 11:46:06;;;;;;;4.67;1.87;;;;;;;3.72;33.86;98149.97;6074329;29;20266;-89
2023/04/04 11:49:10;;;;;;;4.40;2.13;;;;;;;3.86;35.34;98140.41;6108966;29;20711;-89
2023/04/04 11:52:15;;;;;;;2.77;1.90;;;;;;;4.03;35.45;98122.50;6109256;29;20653;-89
2023/04/04 11:55:20;;;;;;;4.27;2.27;;;;;;;4.28;34.88;98129.00;6078148;29;20239;-89
2023/04/04 11:58:25;;;;;;;5.10;2.27;;;;;;;3.83;35.69;98043.25;6108823;29;20754;-90
2023/04/04 12:01:27;;;;;;;3.30;1.90;;;;;;;4.42;34.64;98105.38;6092243;29;20319;-89
2023/04/04 12:04:29;;;;;;;3.70;2.27;;;;;;;4.01;35.21;98027.00;6093396;29;20235;-89
2023/04/04 12:07:34;;;;;;;3.17;2.07;;;;;;;4.19;34.65;98108.25;6097988;28;20238;-89
2023/04/04 12:10:38;;;;;;;2.47;1.60;;;;;;;4.33;36.06;98105.53;6133593;28;20234;-89
2023/04/04 12:13:47;;;;;;;2.70;1.90;;;;;;;4.33;34.26;98070.41;6133620;28;20261;-90
2023/04/04 12:16:52;;;;;;;3.17;2.13;;;;;;;4.48;35.14;98109.88;6115689;28;20741;-90
2023/04/04 12:19:54;;;;;;;4.57;2.40;;;;;;;4.00;36.90;98047.28;6116038;28;20231;-88
2023/04/04 12:22:57;;;;;;;3.13;1.90;;;;;;;3.74;34.85;97987.25;6133980;28;20245;-89
2023/04/04 12:26:02;;;;;;;2.70;2.30;;;;;;;4.10;34.35;98021.41;6133578;28;20374;-89
2023/04/04 12:29:04;;;;;;;2.20;2.00;;;;;;;4.21;33.76;98056.97;6133947;28;20300;-89
2023/04/04 12:32:09;;;;;;;5.60;2.47;;;;;;;3.15;35.54;97884.84;6117591;28;20246;-89
2023/04/04 12:35:12;;;;;;;3.30;2.10;;;;;;;3.98;34.80;98004.47;6118687;28;20706;-89
2023/04/04 12:38:15;;;;;;;3.07;1.90;;;;;;;4.76;34.26;98102.78;6133125;28;20305;-89
2023/04/04 12:41:18;;;;;;;2.33;1.97;;;;;;;4.48;33.69;98039.47;6128063;28;20243;-88
2023/04/04 12:44:29;;;;;;;3.70;1.73;;;;;;;4.79;33.80;98089.19;6133517;28;20242;-90
2023/04/04 12:47:31;;;;;;;4.00;2.10;;;;;;;4.39;33.70;98014.28;6129298;28;20325;-90
2023/04/04 12:50:48;;;;;;;4.47;2.03;;;;;;;3.16;32.30;97852.28;6133269;28;20229;-89
2023/04/04 12:53:51;;;;;;;2.87;1.73;;;;;;;4.19;31.73;98043.16;6117754;28;20786;-88
2023/04/04 12:56:57;;;;;;;3.10;1.97;;;;;;;4.55;33.64;98076.47;6148212;28;20825;-88
2023/04/04 13:00:01;;;;;;;3.30;1.73;;;;;;;4.43;32.72;98036.59;6111678;28;20595;-89
2023/04/04 13:03:03;;;;;;;2.57;2.20;;;;;;;4.25;31.54;97975.66;6128041;28;20687;-89
2023/04/04 13:06:15;;;;;;;2.83;1.80;;;;;;;4.26;31.18;97978.09;6148789;28;20646;-89
2023/04/04 13:09:19;;;;;;;4.10;2.20;;;;;;;4.94;31.05;98069.78;6129295;28;20245;-88
2023/04/04 13:12:21;;;;;;;3.83;2.23;;;;;;;4.45;31.58;98007.41;6132535;28;20237;-90
2023/04/04 13:15:50;;;;;;;2.17;1.53;;;;;;;4.87;31.70;98064.44;6128713;28;20242;-89
2023/04/04 13:18:52;;;;;;;2.50;1.90;;;;;;;4.52;30.50;97973.94;6130335;28;20345;-89
2023/04/04 13:21:54;;;;;;;1.60;1.50;;;;;;;5.02;32.00;98020.25;6124476;28;20227;-88
2023/04/04 13:24:56;;;;;;;2.97;1.90;;;;;;;4.59;30.07;97982.72;6133480;28;20258;-89
2023/04/04 13:27:59;;;;;;;4.40;2.13;;;;;;;4.25;30.96;97934.28;6116954;28;20837;-89
2023/04/04 13:31:07;;;;;;;3.13;1.87;;;;;;;4.25;32.22;97938.72;6131315;28;20244;-90
2023/04/04 13:34:09;;;;;;;3.37;2.23;;;;;;;4.50;31.28;97982.06;6116455;28;20729;-89
2023/04/04 13:37:11;;;;;;;2.60;1.90;;;;;;;4.17;31.39;97949.44;6132286;28;20248;-89
2023/04/04 13:40:13;;;;;;;1.83;1.73;;;;;;;4.14;31.56;97977.00;6121535;28;20716;-89
2023/04/04 13:43:15;;;;;;;2.97;1.80;;;;;;;4.39;30.47;98024.84;6136102;28;20234;-90
2023/04/04 13:46:17;;;;;;;4.63;1.87;;;;;;;3.87;30.91;97932.00;6135779;28;20230;-90
2023/04/04 13:49:19;;;;;;;2.60;2.03;;;;;;;3.20;31.03;97806.16;6136895;29;20242;-89
2023/04/04 13:52:22;;;;;;;3.13;2.10;;;;;;;4.62;32.14;98008.72;6135894;28;20238;-88
2023/04/04 13:55:26;;;;;;;2.20;1.60;;;;;;;4.19;31.52;97927.16;6146185;28;20241;-89
2023/04/04 13:58:28;;;;;;;2.53;2.10;;;;;;;4.63;33.62;97968.97;6100310;28;20313;-89
2023/04/04 14:01:30;;;;;;;2.90;2.23;;;;;;;4.37;32.45;97947.72;6099418;28;20238;-89
2023/04/04 14:04:32;;;;;;;4.30;2.40;;;;;;;4.60;33.02;97956.16;6108203;28;20234;-90
2023/04/04 14:07:38;;;;;;;3.33;2.43;;;;;;;3.42;33.08;97814.00;6100214;28;20666;-89
2023/04/04 14:10:40;;;;;;;4.30;2.50;;;;;;;4.87;32.59;98011.66;6110254;28;20245;-89
2023/04/04 14:13:42;;;;;;;3.03;2.20;;;;;;;3.96;32.58;97910.78;6099631;28;20647;-89
2023/04/04 14:16:44;;;;;;;4.40;2.70;;;;;;;4.43;33.55;98023.41;6101611;28;20230;-88
2023/04/04 14:19:46;;;;;;;3.60;2.23;;;;;;;3.93;33.31;97909.34;6111573;28;20270;-90
2023/04/04 14:22:48;;;;;;;3.37;2.47;;;;;;;3.74;33.01;97905.56;6113679;28;20234;-89
2023/04/04 14:25:51;;;;;;;3.33;2.30;;;;;;;4.92;33.59;98054.13;6095447;28;20713;-89
2023/04/04 14:28:53;;;;;;;4.00;2.70;;;;;;;4.31;32.40;97995.97;6116886;28;20254;-89
2023/04/04 14:31:55;;;;;;;3.70;2.20;;;;;;;4.73;33.20;98071.50;6117329;28;20649;-89